Time;durP1;ratioP1;P1;durP2;ratioP2;P2;SDS_P1;SDS_P2;PMS_P1;PMS_P2;Temp;Humidity;BMP_temperature;BMP_pressure;BME280_temperature;BME280_humidity;BME280_pressure;Samples;Min_cycle;Max_cycle;Signal;HPM_P1;HPM_P2
2022/01/08 00:00:07;;;;;;;;;;;;;;;7.91;56.86;99950.47;4962629;28;6800;-70
2022/01/08 00:02:33;;;;;;;;;;;;;;;7.90;57.47;99944.47;4956983;28;7866;-70
2022/01/08 00:05:00;;;;;;;;;;;;;;;7.88;57.21;99943.50;4952139;28;6868;-70
2022/01/08 00:07:26;;;;;;;;;;;;;;;7.87;57.09;99944.31;4953781;28;6980;-70
2022/01/08 00:09:52;;;;;;;;;;;;;;;7.84;57.52;99943.28;4954771;28;7000;-70
2022/01/08 00:12:18;;;;;;;;;;;;;;;7.82;57.93;99948.28;4941196;28;7377;-70
2022/01/08 00:14:43;;;;;;;;;;;;;;;7.81;56.86;99953.34;4955201;28;6870;-71
2022/01/08 00:17:09;;;;;;;;;;;;;;;7.80;56.58;99957.53;4954829;28;6788;-70
2022/01/08 00:19:35;;;;;;;;;;;;;;;7.78;57.13;99954.03;4957159;28;7054;-70
2022/01/08 00:22:00;;;;;;;;;;;;;;;7.77;56.80;99958.28;4956360;28;6875;-70
2022/01/08 00:24:26;;;;;;;;;;;;;;;7.78;57.41;99967.69;4946320;28;6777;-71
2022/01/08 00:26:52;;;;;;;;;;;;;;;7.78;57.61;99964.25;4948686;28;6942;-71
2022/01/08 00:29:17;;;;;;;;;;;;;;;7.77;57.51;99967.59;4932578;28;7123;-70
2022/01/08 00:31:43;;;;;;;;;;;;;;;7.77;56.84;99972.72;4948014;28;6808;-70
2022/01/08 00:34:09;;;;;;;;;;;;;;;7.76;57.95;99968.41;4945347;28;6953;-71
2022/01/08 00:36:34;;;;;;;;;;;;;;;7.75;56.79;99974.31;4944539;28;7339;-70
2022/01/08 00:39:00;;;;;;;;;;;;;;;7.73;56.49;99978.47;4945842;28;6997;-70
2022/01/08 00:41:26;;;;;;;;;;;;;;;7.67;56.54;99973.03;4947944;28;6783;-70
2022/01/08 00:43:52;;;;;;;;;;;;;;;7.58;57.13;99974.28;4949595;28;6804;-70
2022/01/08 00:46:18;;;;;;;;;;;;;;;7.49;56.49;99977.22;4945568;28;7898;-71
2022/01/08 00:48:44;;;;;;;;;;;;;;;7.40;57.14;99986.03;4929883;28;8854;-70
2022/01/08 00:51:10;;;;;;;;;;;;;;;7.30;56.75;99984.69;4951472;28;7252;-70
2022/01/08 00:53:37;;;;;;;;;;;;;;;7.19;56.61;99979.00;4958339;28;6792;-70
2022/01/08 00:56:03;;;;;;;;;;;;;;;7.08;57.40;99991.13;4954615;28;7235;-70
2022/01/08 00:58:29;;;;;;;;;;;;;;;6.98;57.01;99997.41;4953768;28;6892;-70
2022/01/08 01:00:55;;;;;;;;;;;;;;;6.89;57.57;99994.34;4939468;28;6987;-70
2022/01/08 01:03:21;;;;;;;;;;;;;;;6.80;57.68;100004.88;4954252;28;7086;-70
2022/01/08 01:05:47;;;;;;;;;;;;;;;6.72;57.77;100006.97;4958731;28;6795;-70
2022/01/08 01:08:13;;;;;;;;;;;;;;;6.66;58.02;100009.16;4952236;28;6963;-70
2022/01/08 01:10:39;;;;;;;;;;;;;;;6.58;57.96;100002.78;4955481;28;6955;-70
2022/01/08 01:13:05;;;;;;;;;;;;;;;6.52;57.44;100004.16;4957581;28;6832;-71
2022/01/08 01:15:31;;;;;;;;;;;;;;;6.46;57.21;100008.91;4955356;28;6985;-71
2022/01/08 01:17:57;;;;;;;;;;;;;;;6.41;57.50;100011.97;4957690;28;7039;-71
2022/01/08 01:20:22;;;;;;;;;;;;;;;6.36;57.74;100014.25;4954469;28;7043;-70
2022/01/08 01:25:28;;;;;;;;;;;;;;;6.23;57.77;100023.72;4954615;28;7121;-70
2022/01/08 01:28:22;;;;;;;;;;;;;;;6.17;57.76;100023.34;4956348;28;7282;-70
2022/01/08 01:47:03;;;;;;;;;;;;;;;5.90;58.60;100018.34;4947608;28;7280;-70
2022/01/08 01:49:36;;;;;;;;;;;;;;;5.86;58.33;100011.28;4931656;28;6927;-70
2022/01/08 01:52:05;;;;;;;;;;;;;;;5.82;58.83;100004.28;4953225;28;7873;-70
2022/01/08 01:54:33;;;;;;;;;;;;;;;5.81;58.77;100016.09;4930001;28;6992;-70
2022/01/08 01:57:01;;;;;;;;;;;;;;;5.80;58.88;100013.47;4949065;28;6858;-70
2022/01/08 01:59:30;;;;;;;;;;;;;;;5.78;58.80;100017.56;4957620;28;6936;-71
2022/01/08 02:01:56;;;;;;;;;;;;;;;5.77;59.31;100020.91;4945812;28;7011;-70
2022/01/08 02:04:22;;;;;;;;;;;;;;;5.75;59.05;100022.47;4949570;28;7421;-70
2022/01/08 02:06:48;;;;;;;;;;;;;;;5.73;58.95;100018.97;4948583;28;7420;-70
2022/01/08 02:09:14;;;;;;;;;;;;;;;5.71;59.06;100021.41;4930061;28;8224;-70
2022/01/08 02:12:05;;;;;;;;;;;;;;;5.69;58.99;100033.16;4948041;28;6792;-70
2022/01/08 02:14:35;;;;;;;;;;;;;;;5.65;59.35;100032.09;4949030;28;7002;-70
2022/01/08 02:17:04;;;;;;;;;;;;;;;5.61;59.18;100027.59;4949549;28;7204;-70
2022/01/08 02:19:30;;;;;;;;;;;;;;;5.60;59.11;100030.94;4950549;28;7392;-70
2022/01/08 02:22:00;;;;;;;;;;;;;;;5.58;58.91;100029.94;4948248;28;6812;-70
2022/01/08 02:24:27;;;;;;;;;;;;;;;5.55;59.50;100022.13;4947349;28;6824;-70
2022/01/08 02:26:53;;;;;;;;;;;;;;;5.52;59.07;100021.94;4936120;28;7113;-70
2022/01/08 02:29:23;;;;;;;;;;;;;;;5.50;59.21;100033.66;4928979;28;7095;-70
2022/01/08 02:31:56;;;;;;;;;;;;;;;5.48;59.34;100036.13;4953903;28;6946;-70
2022/01/08 02:34:24;;;;;;;;;;;;;;;5.47;59.40;100031.81;4934401;28;6825;-70
2022/01/08 02:36:50;;;;;;;;;;;;;;;5.45;59.95;100038.44;4950106;28;7064;-70
2022/01/08 02:39:16;;;;;;;;;;;;;;;5.45;59.85;100037.59;4958466;28;7326;-70
2022/01/08 02:41:42;;;;;;;;;;;;;;;5.44;59.41;100043.47;4960150;28;7587;-70
2022/01/08 02:44:09;;;;;;;;;;;;;;;5.42;60.04;100051.88;4957982;28;6820;-70
2022/01/08 02:46:37;;;;;;;;;;;;;;;5.41;59.63;100051.78;4956351;28;6852;-70
2022/01/08 02:49:03;;;;;;;;;;;;;;;5.41;59.64;100057.75;4957918;28;7944;-70
2022/01/08 02:51:31;;;;;;;;;;;;;;;5.41;60.01;100052.66;4958910;28;7227;-70
2022/01/08 02:53:56;;;;;;;;;;;;;;;5.41;59.58;100055.19;4959920;28;7230;-70
2022/01/08 02:56:22;;;;;;;;;;;;;;;5.40;59.71;100055.97;4959174;28;7459;-70
2022/01/08 02:58:48;;;;;;;;;;;;;;;5.41;59.96;100055.19;4959497;28;6817;-70
2022/01/08 03:01:13;;;;;;;;;;;;;;;5.42;59.50;100058.59;4933367;28;6792;-70
2022/01/08 03:03:39;;;;;;;;;;;;;;;5.41;60.41;100062.81;4963249;28;6867;-71
2022/01/08 03:06:04;;;;;;;;;;;;;;;5.44;60.39;100061.25;4963444;28;6870;-70
2022/01/08 03:08:30;;;;;;;;;;;;;;;5.44;60.20;100071.41;4961658;28;7201;-70
2022/01/08 03:10:56;;;;;;;;;;;;;;;5.45;60.75;100068.97;4961669;28;6871;-70
2022/01/08 03:13:22;;;;;;;;;;;;;;;5.46;60.65;100072.41;4961761;28;6812;-70
2022/01/08 03:15:48;;;;;;;;;;;;;;;5.47;60.62;100069.06;4961615;28;6811;-70
2022/01/08 03:18:13;;;;;;;;;;;;;;;5.47;60.05;100061.44;4944492;28;7362;-70
2022/01/08 03:20:49;;;;;;;;;;;;;;;5.47;60.48;100067.41;4961137;28;6792;-70
2022/01/08 03:23:16;;;;;;;;;;;;;;;5.47;60.75;100061.44;4960064;28;7306;-70
2022/01/08 03:25:44;;;;;;;;;;;;;;;5.46;60.30;100064.75;4945151;28;7016;-70
2022/01/08 03:28:11;;;;;;;;;;;;;;;5.46;60.76;100072.41;4942767;28;7273;-70
2022/01/08 03:30:39;;;;;;;;;;;;;;;5.44;60.67;100072.28;4960538;28;7003;-70
2022/01/08 03:33:05;;;;;;;;;;;;;;;5.45;60.89;100075.72;4961798;28;6816;-70
2022/01/08 03:35:31;;;;;;;;;;;;;;;5.45;59.90;100083.34;4942696;28;6843;-70
2022/01/08 03:37:56;;;;;;;;;;;;;;;5.45;60.91;100086.75;4974818;28;6871;-71
2022/01/08 03:40:22;;;;;;;;;;;;;;;5.46;60.44;100087.66;4956763;28;6811;-70
2022/01/08 03:42:48;;;;;;;;;;;;;;;5.46;60.74;100093.63;4960539;28;6800;-70
2022/01/08 03:45:13;;;;;;;;;;;;;;;5.46;60.57;100093.63;4950106;28;6796;-70
2022/01/08 03:48:04;;;;;;;;;;;;;;;5.46;60.88;100093.63;4955194;28;6812;-71
2022/01/08 03:50:28;;;;;;;;;;;;;;;5.46;60.90;100095.28;4951596;28;6885;-71
2022/01/08 03:52:53;;;;;;;;;;;;;;;5.47;61.34;100094.50;4950524;28;7288;-70
2022/01/08 03:55:19;;;;;;;;;;;;;;;5.47;60.87;100091.94;4931407;28;6812;-70
2022/01/08 03:57:45;;;;;;;;;;;;;;;5.46;60.69;100098.72;4952551;28;6990;-70
2022/01/08 04:00:11;;;;;;;;;;;;;;;5.45;60.32;100093.50;4949187;28;6796;-70
2022/01/08 04:02:37;;;;;;;;;;;;;;;5.44;60.76;100096.84;4949064;28;6812;-70
2022/01/08 04:05:03;;;;;;;;;;;;;;;5.41;60.61;100100.97;4947334;28;7826;-70
2022/01/08 04:07:29;;;;;;;;;;;;;;;5.41;61.18;100098.41;4947907;28;6936;-70
2022/01/08 04:09:55;;;;;;;;;;;;;;;5.41;60.87;100102.59;4945257;28;7100;-71
2022/01/08 04:12:28;;;;;;;;;;;;;;;5.39;60.69;100112.66;4948501;28;7255;-70
2022/01/08 04:15:04;;;;;;;;;;;;;;;5.37;60.92;100104.06;4948231;28;7312;-71
2022/01/08 04:17:30;;;;;;;;;;;;;;;5.35;60.65;100103.09;4947880;28;7354;-70
2022/01/08 04:19:56;;;;;;;;;;;;;;;5.35;60.99;100100.56;4933511;28;7073;-70
2022/01/08 04:22:23;;;;;;;;;;;;;;;5.34;60.63;100106.41;4949738;28;6800;-70
2022/01/08 04:24:49;;;;;;;;;;;;;;;5.33;61.03;100109.75;4947317;28;9782;-70
2022/01/08 04:27:15;;;;;;;;;;;;;;;5.32;60.83;100114.72;4948131;28;6876;-70
2022/01/08 04:29:41;;;;;;;;;;;;;;;5.30;60.48;100114.59;4942896;28;7934;-70
2022/01/08 04:32:08;;;;;;;;;;;;;;;5.28;61.02;100116.19;4944977;28;6799;-71
2022/01/08 04:34:34;;;;;;;;;;;;;;;5.27;61.00;100124.59;4949231;28;7364;-71
2022/01/08 04:37:00;;;;;;;;;;;;;;;5.25;60.70;100124.47;4944991;28;8004;-71
2022/01/08 04:39:27;;;;;;;;;;;;;;;5.25;60.73;100123.63;4950465;28;7014;-70
2022/01/08 04:41:53;;;;;;;;;;;;;;;5.24;61.08;100124.41;4943596;28;7787;-70
2022/01/08 04:44:19;;;;;;;;;;;;;;;5.25;61.28;100121.06;4949057;28;7297;-70
2022/01/08 04:46:45;;;;;;;;;;;;;;;5.22;61.40;100110.72;4942220;28;7586;-70
2022/01/08 04:49:11;;;;;;;;;;;;;;;5.23;60.92;100120.09;4936830;28;7085;-70
2022/01/08 04:51:37;;;;;;;;;;;;;;;5.21;60.80;100120.00;4947948;28;6784;-70
2022/01/08 04:54:03;;;;;;;;;;;;;;;5.20;61.25;100119.88;4945598;28;6887;-70
2022/01/08 04:56:29;;;;;;;;;;;;;;;5.20;61.34;100127.50;4951067;28;7035;-70
2022/01/08 04:58:55;;;;;;;;;;;;;;;5.18;61.56;100132.50;4925071;28;6947;-70
2022/01/08 05:01:21;;;;;;;;;;;;;;;5.16;61.43;100128.97;4933949;28;7897;-70
2022/01/08 05:03:47;;;;;;;;;;;;;;;5.17;60.94;100138.38;4949361;28;6897;-70
2022/01/08 05:06:13;;;;;;;;;;;;;;;5.17;61.30;100142.56;4947683;28;7564;-70
2022/01/08 05:08:38;;;;;;;;;;;;;;;5.15;61.08;100137.38;4945460;28;7245;-70
2022/01/08 05:11:04;;;;;;;;;;;;;;;5.14;60.98;100141.59;4943625;28;7201;-70
2022/01/08 05:13:30;;;;;;;;;;;;;;;5.14;60.76;100151.75;4942621;28;6860;-70
2022/01/08 05:15:56;;;;;;;;;;;;;;;5.14;60.96;100150.84;4948498;28;6788;-70
2022/01/08 05:18:23;;;;;;;;;;;;;;;5.11;61.09;100159.16;4951818;28;7251;-70
2022/01/08 05:20:58;;;;;;;;;;;;;;;5.11;61.52;100154.06;4954877;28;6792;-70
2022/01/08 05:23:23;;;;;;;;;;;;;;;5.11;61.50;100155.75;4947476;28;6836;-70
2022/01/08 05:25:49;;;;;;;;;;;;;;;5.11;61.17;100161.69;4966760;28;7299;-70
2022/01/08 05:28:15;;;;;;;;;;;;;;;5.10;61.76;100165.00;4960753;28;6824;-70
2022/01/08 05:30:40;;;;;;;;;;;;;;;5.10;61.21;100161.59;4951487;28;7122;-70
2022/01/08 05:33:06;;;;;;;;;;;;;;;5.10;61.80;100162.47;4942714;28;8048;-70
2022/01/08 05:35:32;;;;;;;;;;;;;;;5.10;61.36;100159.06;4962183;28;6819;-70
2022/01/08 05:37:57;;;;;;;;;;;;;;;5.11;61.92;100166.78;4959255;28;6993;-70
2022/01/08 05:40:24;;;;;;;;;;;;;;;5.13;61.85;100170.31;4960496;28;6792;-70
2022/01/08 05:42:50;;;;;;;;;;;;;;;5.16;61.63;100171.28;4961070;28;7195;-71
2022/01/08 05:45:16;;;;;;;;;;;;;;;5.19;61.94;100169.84;4957079;28;6823;-70
2022/01/08 05:47:41;;;;;;;;;;;;;;;5.21;62.22;100169.91;4948829;28;6795;-70
2022/01/08 05:50:08;;;;;;;;;;;;;;;5.26;62.12;100171.13;4957749;28;6827;-70
2022/01/08 05:52:34;;;;;;;;;;;;;;;5.30;62.41;100172.19;4956930;28;6816;-70
2022/01/08 05:55:00;;;;;;;;;;;;;;;5.33;61.66;100180.91;4957225;28;7108;-70
2022/01/08 05:57:26;;;;;;;;;;;;;;;5.34;62.14;100182.66;4957314;28;7300;-70
2022/01/08 05:59:52;;;;;;;;;;;;;;;5.38;62.33;100171.91;4940580;28;6905;-70
2022/01/08 06:02:18;;;;;;;;;;;;;;;5.39;61.77;100175.34;4957390;28;6820;-70
2022/01/08 06:04:43;;;;;;;;;;;;;;;5.40;61.88;100175.41;4958196;28;6792;-71
2022/01/08 06:07:09;;;;;;;;;;;;;;;5.40;61.75;100167.78;4958231;28;7208;-71
2022/01/08 06:09:35;;;;;;;;;;;;;;;5.42;61.83;100181.50;4958843;28;6951;-70
2022/01/08 06:12:00;;;;;;;;;;;;;;;5.45;61.59;100182.47;4956195;28;8069;-70
2022/01/08 06:14:26;;;;;;;;;;;;;;;5.50;62.37;100189.63;4958782;28;6871;-71
2022/01/08 06:16:52;;;;;;;;;;;;;;;5.58;62.03;100196.88;4957806;28;7338;-71
2022/01/08 06:19:18;;;;;;;;;;;;;;;5.64;62.10;100190.53;4972517;28;6788;-70
2022/01/08 06:21:44;;;;;;;;;;;;;;;5.70;61.62;100192.56;4955904;28;7317;-70
2022/01/08 06:24:09;;;;;;;;;;;;;;;5.75;61.97;100200.50;4957430;28;6823;-70
2022/01/08 06:26:36;;;;;;;;;;;;;;;5.76;61.45;100195.53;4942935;28;7054;-70
2022/01/08 06:29:02;;;;;;;;;;;;;;;5.74;61.49;100204.69;4959187;28;6847;-70
2022/01/08 06:31:28;;;;;;;;;;;;;;;5.72;61.31;100207.94;4942820;28;7245;-70
2022/01/08 06:33:54;;;;;;;;;;;;;;;5.68;61.06;100205.19;4960253;28;6941;-70
2022/01/08 06:36:23;;;;;;;;;;;;;;;5.65;61.22;100199.91;4956011;28;7118;-70
2022/01/08 06:38:50;;;;;;;;;;;;;;;5.62;61.57;100197.19;4959641;28;6832;-70
2022/01/08 06:41:16;;;;;;;;;;;;;;;5.60;61.00;100192.75;4957170;28;6800;-70
2022/01/08 06:43:42;;;;;;;;;;;;;;;5.56;61.06;100199.31;4956517;28;6930;-70
2022/01/08 06:46:07;;;;;;;;;;;;;;;5.53;61.12;100196.56;4955640;28;7011;-70
2022/01/08 06:48:33;;;;;;;;;;;;;;;5.51;61.12;100200.69;4958060;28;6855;-70
2022/01/08 06:50:59;;;;;;;;;;;;;;;5.48;61.05;100188.66;4959068;28;6973;-70
2022/01/08 06:53:24;;;;;;;;;;;;;;;5.47;61.62;100191.97;4958289;28;6962;-70
2022/01/08 06:55:50;;;;;;;;;;;;;;;5.48;61.46;100195.38;4942797;28;6914;-70
2022/01/08 06:58:16;;;;;;;;;;;;;;;5.49;61.66;100202.22;4957506;28;6795;-70
2022/01/08 07:00:42;;;;;;;;;;;;;;;5.50;61.93;100201.44;4959195;28;6785;-70
2022/01/08 07:03:11;;;;;;;;;;;;;;;5.52;61.99;100198.22;4959570;28;6867;-70
2022/01/08 07:05:37;;;;;;;;;;;;;;;5.52;61.58;100198.22;4956957;28;7015;-71
2022/01/08 07:08:04;;;;;;;;;;;;;;;5.56;62.12;100199.31;4960461;28;6872;-71
2022/01/08 07:10:30;;;;;;;;;;;;;;;5.59;61.48;100209.66;4958375;28;7208;-70
2022/01/08 07:12:56;;;;;;;;;;;;;;;5.62;61.47;100198.81;4939009;28;7396;-70
2022/01/08 07:15:22;;;;;;;;;;;;;;;5.65;61.73;100205.00;4952651;28;6804;-70
2022/01/08 07:17:47;;;;;;;;;;;;;;;5.65;61.79;100201.56;4937265;28;7258;-70
2022/01/08 07:20:14;;;;;;;;;;;;;;;5.67;61.69;100205.97;4958103;28;6927;-70
2022/01/08 07:22:40;;;;;;;;;;;;;;;5.68;61.75;100205.19;4939736;28;6910;-71
2022/01/08 07:25:07;;;;;;;;;;;;;;;5.69;61.69;100209.47;4933818;28;8306;-71
2022/01/08 07:27:33;;;;;;;;;;;;;;;5.72;62.06;100213.03;4938349;28;7105;-71
2022/01/08 07:30:01;;;;;;;;;;;;;;;5.72;61.58;100210.50;4953531;28;7398;-71
2022/01/08 07:32:29;;;;;;;;;;;;;;;5.74;61.90;100211.47;4956601;28;7876;-70
2022/01/08 07:34:55;;;;;;;;;;;;;;;5.74;61.83;100214.00;4941663;28;7241;-71
2022/01/08 07:37:21;;;;;;;;;;;;;;;5.74;61.59;100201.28;4941565;28;7174;-70
2022/01/08 07:39:47;;;;;;;;;;;;;;;5.76;61.33;100209.88;4955001;28;7288;-70
2022/01/08 07:42:13;;;;;;;;;;;;;;;5.75;61.86;100203.94;4940568;28;6800;-70
2022/01/08 07:44:41;;;;;;;;;;;;;;;5.76;61.71;100204.81;4959307;28;6987;-70
2022/01/08 07:47:07;;;;;;;;;;;;;;;5.77;61.96;100206.56;4953492;28;7334;-70
2022/01/08 07:49:33;;;;;;;;;;;;;;;5.80;61.92;100207.63;4957078;28;6868;-70
2022/01/08 07:51:59;;;;;;;;;;;;;;;5.82;62.02;100195.88;4971749;28;6788;-70
2022/01/08 07:54:25;;;;;;;;;;;;;;;5.88;61.94;100203.03;4956391;28;7143;-70
2022/01/08 07:56:51;;;;;;;;;;;;;;;5.93;61.85;100206.75;4958044;28;6801;-70
2022/01/08 07:59:17;;;;;;;;;;;;;;;5.99;61.83;100208.81;4958527;28;7170;-70
2022/01/08 08:01:43;;;;;;;;;;;;;;;6.02;61.94;100210.72;4956668;28;7183;-70
2022/01/08 08:04:08;;;;;;;;;;;;;;;6.08;62.48;100203.44;4956288;28;6887;-71
2022/01/08 08:06:43;;;;;;;;;;;;;;;6.17;62.17;100208.25;4952805;28;6866;-71
2022/01/08 08:09:09;;;;;;;;;;;;;;;6.27;61.63;100197.84;4941614;28;6801;-71
2022/01/08 08:11:35;;;;;;;;;;;;;;;6.38;62.24;100203.63;4960076;28;7118;-70
2022/01/08 08:14:00;;;;;;;;;;;;;;;6.46;61.78;100189.66;4956033;28;6854;-70
2022/01/08 08:16:27;;;;;;;;;;;;;;;6.55;61.97;100189.38;4956302;28;7766;-70
2022/01/08 08:18:52;;;;;;;;;;;;;;;6.62;62.13;100191.50;4954942;28;8351;-70
2022/01/08 08:21:18;;;;;;;;;;;;;;;6.69;61.12;100186.75;4957008;28;6968;-71
2022/01/08 08:23:44;;;;;;;;;;;;;;;6.74;61.83;100181.16;4957311;28;6887;-71
2022/01/08 08:26:09;;;;;;;;;;;;;;;6.80;61.65;100184.06;4939691;28;6905;-70
2022/01/08 08:28:35;;;;;;;;;;;;;;;6.84;60.89;100169.84;4951472;28;6800;-70
2022/01/08 08:31:01;;;;;;;;;;;;;;;6.88;61.12;100163.28;4956042;28;6863;-70
2022/01/08 08:33:26;;;;;;;;;;;;;;;6.91;60.76;100166.00;4952777;28;6948;-70
2022/01/08 08:35:52;;;;;;;;;;;;;;;6.94;61.03;100158.53;4955686;28;7179;-70
2022/01/08 08:38:18;;;;;;;;;;;;;;;6.93;60.75;100155.13;4958489;28;6867;-70
2022/01/08 08:40:44;;;;;;;;;;;;;;;6.95;60.20;100150.09;4955022;28;6795;-70
2022/01/08 08:43:09;;;;;;;;;;;;;;;6.94;59.93;100154.31;4954282;28;6788;-70
2022/01/08 08:45:35;;;;;;;;;;;;;;;6.93;60.40;100149.13;4949119;28;6995;-70
2022/01/08 08:48:01;;;;;;;;;;;;;;;6.94;60.23;100153.44;4955607;28;6978;-70
2022/01/08 08:50:26;;;;;;;;;;;;;;;6.93;60.36;100146.56;4956984;28;7748;-70
2022/01/08 08:52:55;;;;;;;;;;;;;;;6.93;60.36;100154.22;4940445;28;6804;-70
2022/01/08 08:55:21;;;;;;;;;;;;;;;6.93;60.02;100151.69;4940146;28;6796;-70
2022/01/08 08:57:46;;;;;;;;;;;;;;;6.95;59.67;100156.06;4957641;28;6784;-70
2022/01/08 09:00:13;;;;;;;;;;;;;;;6.94;59.88;100149.22;4954530;28;6863;-70
2022/01/08 09:02:39;;;;;;;;;;;;;;;6.95;59.85;100150.97;4955000;28;6924;-70
2022/01/08 09:05:05;;;;;;;;;;;;;;;6.97;60.00;100152.75;4955473;28;7285;-70
2022/01/08 09:07:33;;;;;;;;;;;;;;;6.99;59.38;100153.69;4961971;28;7245;-70
2022/01/08 09:09:59;;;;;;;;;;;;;;;7.00;58.98;100163.09;4958568;28;6823;-70
2022/01/08 09:12:25;;;;;;;;;;;;;;;7.01;59.54;100155.56;4964283;28;7313;-70
2022/01/08 09:14:51;;;;;;;;;;;;;;;7.04;59.06;100149.75;4958710;28;6800;-71
2022/01/08 09:17:17;;;;;;;;;;;;;;;7.07;58.59;100155.03;4943478;28;7373;-70
2022/01/08 09:19:44;;;;;;;;;;;;;;;7.09;58.54;100153.44;4938320;28;6837;-70
2022/01/08 09:22:12;;;;;;;;;;;;;;;7.11;58.48;100151.88;4956573;28;7230;-70
2022/01/08 09:24:37;;;;;;;;;;;;;;;7.14;58.94;100156.25;4943672;28;7152;-70
2022/01/08 09:27:04;;;;;;;;;;;;;;;7.15;58.45;100156.34;4959285;28;7889;-70
2022/01/08 09:29:29;;;;;;;;;;;;;;;7.15;57.68;100151.25;4960080;28;6873;-70
2022/01/08 09:31:55;;;;;;;;;;;;;;;7.15;58.16;100151.25;4956954;28;6782;-70
2022/01/08 09:34:21;;;;;;;;;;;;;;;7.18;57.45;100148.88;4961602;28;6883;-70
2022/01/08 09:36:47;;;;;;;;;;;;;;;7.20;57.74;100151.53;4923311;28;7320;-70
2022/01/08 09:39:14;;;;;;;;;;;;;;;7.21;58.04;100143.09;4958429;28;6852;-70
2022/01/08 09:41:40;;;;;;;;;;;;;;;7.25;57.17;100144.16;4962182;28;6811;-70
2022/01/08 09:44:06;;;;;;;;;;;;;;;7.28;56.98;100144.31;4959627;28;7884;-70
2022/01/08 09:46:32;;;;;;;;;;;;;;;7.30;57.51;100137.66;4961138;28;7405;-70
2022/01/08 09:48:58;;;;;;;;;;;;;;;7.32;57.40;100136.91;4976052;28;7916;-71
2022/01/08 09:51:26;;;;;;;;;;;;;;;7.34;56.75;100131.91;4962070;28;6784;-70
2022/01/08 09:53:52;;;;;;;;;;;;;;;7.38;56.73;100130.44;4934534;28;7030;-70
2022/01/08 09:56:18;;;;;;;;;;;;;;;7.41;56.97;100115.28;4959783;28;6895;-70
2022/01/08 09:58:44;;;;;;;;;;;;;;;7.44;56.31;100118.03;4976683;28;6894;-71
2022/01/08 10:01:33;;;;;;;;;;;;;;;7.47;56.81;100105.44;4961030;28;6879;-70
2022/01/08 10:04:02;;;;;;;;;;;;;;;7.48;56.16;100097.88;4958500;28;6989;-71
2022/01/08 10:06:35;;;;;;;;;;;;;;;7.53;56.84;100087.06;4962756;28;6986;-71
2022/01/08 10:09:05;;;;;;;;;;;;;;;7.56;56.07;100088.09;4957658;28;6965;-70
2022/01/08 10:11:32;;;;;;;;;;;;;;;7.60;55.87;100081.50;4963379;28;7399;-70
2022/01/08 10:14:05;;;;;;;;;;;;;;;7.63;56.16;100072.34;4962439;28;7142;-70
2022/01/08 10:19:25;;;;;;;;;;;;;;;7.73;55.78;100060.09;4962543;28;6994;-70
2022/01/08 10:21:52;;;;;;;;;;;;;;;7.77;56.58;100054.34;4946262;28;7064;-71
2022/01/08 10:24:28;;;;;;;;;;;;;;;7.82;56.42;100042.69;4961429;28;6911;-71
2022/01/08 10:27:06;;;;;;;;;;;;;;;7.88;56.74;100040.47;4960701;28;7347;-70
2022/01/08 10:29:34;;;;;;;;;;;;;;;7.96;56.82;100050.22;4943562;28;7285;-70
2022/01/08 10:32:00;;;;;;;;;;;;;;;8.03;55.82;100029.34;4944080;28;6966;-71
2022/01/08 10:34:30;;;;;;;;;;;;;;;8.10;55.57;100022.88;4960640;28;7440;-71
2022/01/08 10:36:55;;;;;;;;;;;;;;;8.14;56.18;100032.44;4959301;28;6953;-70
2022/01/08 10:39:23;;;;;;;;;;;;;;;8.19;54.79;100033.56;4959386;28;7905;-70
2022/01/08 10:41:52;;;;;;;;;;;;;;;8.23;55.86;100024.38;4959915;28;6792;-70
2022/01/08 10:44:24;;;;;;;;;;;;;;;8.26;55.24;100009.22;4977609;28;7092;-70
2022/01/08 10:47:16;;;;;;;;;;;;;;;8.26;54.25;100004.13;4960595;28;6819;-70
2022/01/08 10:50:05;;;;;;;;;;;;;;;8.23;53.95;99992.06;4958782;28;8272;-70
2022/01/08 10:52:46;;;;;;;;;;;;;;;8.24;54.75;99985.28;4975457;28;7031;-70
2022/01/08 10:55:13;;;;;;;;;;;;;;;8.26;55.01;99983.69;4960946;28;6816;-70
2022/01/08 10:57:45;;;;;;;;;;;;;;;8.29;54.10;99984.72;4960064;28;7241;-70
2022/01/08 11:00:14;;;;;;;;;;;;;;;8.37;54.49;99976.56;4961440;28;6880;-70
2022/01/08 11:02:41;;;;;;;;;;;;;;;8.42;54.52;99973.44;4958881;28;6824;-70
2022/01/08 11:05:10;;;;;;;;;;;;;;;8.47;53.67;99974.53;4961286;28;6811;-70
2022/01/08 11:07:39;;;;;;;;;;;;;;;8.52;54.14;99962.03;4960468;28;6796;-71
2022/01/08 11:10:15;;;;;;;;;;;;;;;8.54;53.88;99937.44;4974864;28;7237;-71
2022/01/08 11:12:42;;;;;;;;;;;;;;;8.57;53.98;99936.72;4945147;28;7122;-70
2022/01/08 11:17:46;;;;;;;;;;;;;;;8.59;53.03;99923.22;4959079;28;7117;-70
2022/01/08 11:20:23;;;;;;;;;;;;;;;8.63;53.33;99916.56;4962965;28;7116;-71
2022/01/08 11:22:59;;;;;;;;;;;;;;;8.64;53.07;99899.56;4959426;28;7067;-70
2022/01/08 11:25:30;;;;;;;;;;;;;;;8.65;53.16;99899.63;4960435;28;6816;-70
2022/01/08 11:28:03;;;;;;;;;;;;;;;8.68;53.42;99894.66;4959012;28;7167;-71
2022/01/08 11:30:33;;;;;;;;;;;;;;;8.68;52.66;99897.22;4955427;28;6907;-71
2022/01/08 11:33:08;;;;;;;;;;;;;;;8.67;52.34;99886.94;4960282;28;6812;-71
2022/01/08 11:35:37;;;;;;;;;;;;;;;8.65;53.07;99878.34;4959428;28;6836;-71
2022/01/08 11:38:07;;;;;;;;;;;;;;;8.67;53.16;99875.03;4954603;28;7181;-71
2022/01/08 11:40:37;;;;;;;;;;;;;;;8.67;52.77;99864.81;4958289;28;7126;-71
2022/01/08 11:43:07;;;;;;;;;;;;;;;8.71;53.17;99863.28;4959576;28;6895;-71
2022/01/08 11:45:43;;;;;;;;;;;;;;;8.73;53.08;99849.78;4958192;28;6836;-70
2022/01/08 11:48:11;;;;;;;;;;;;;;;8.73;51.60;99847.22;4955794;28;6827;-70
2022/01/08 11:50:59;;;;;;;;;;;;;;;8.74;51.93;99825.13;5028897;28;6705;-72
2022/01/08 11:53:30;;;;;;;;;;;;;;;8.72;51.29;99819.03;5011632;28;6879;-72
2022/01/08 11:56:05;;;;;;;;;;;;;;;8.70;51.63;99801.09;5033329;28;6824;-72
2022/01/08 11:58:37;;;;;;;;;;;;;;;8.71;51.53;99815.63;5033977;28;6815;-73
2022/01/08 12:01:10;;;;;;;;;;;;;;;8.73;52.32;99798.69;4985023;28;7113;-73
2022/01/08 12:03:51;;;;;;;;;;;;;;;8.76;52.60;99795.41;5019584;28;7250;-73
2022/01/08 12:06:19;;;;;;;;;;;;;;;8.78;52.64;99791.22;4992819;28;6811;-73
2022/01/08 12:09:19;;;;;;;;;;;;;;;8.81;51.53;99778.56;5030116;28;7391;-72
2022/01/08 12:11:44;;;;;;;;;;;;;;;8.82;52.80;99772.66;5019598;28;6820;-72
2022/01/08 12:14:17;;;;;;;;;;;;;;;8.85;52.86;99779.59;5033540;28;6826;-72
2022/01/08 12:16:48;;;;;;;;;;;;;;;8.88;52.13;99775.50;4993478;28;6807;-72
2022/01/08 12:19:31;;;;;;;;;;;;;;;8.90;52.02;99770.47;5007406;28;6902;-72
2022/01/08 12:21:58;;;;;;;;;;;;;;;8.92;52.13;99757.72;5029605;28;6887;-72
2022/01/08 12:24:27;;;;;;;;;;;;;;;8.94;51.54;99751.88;4993304;28;7312;-72
2022/01/08 12:26:58;;;;;;;;;;;;;;;8.96;52.08;99745.16;5023721;28;6930;-72
2022/01/08 12:29:41;;;;;;;;;;;;;;;8.98;52.10;99746.13;4992947;28;7410;-72
2022/01/08 12:32:24;;;;;;;;;;;;;;;9.00;52.26;99712.94;5026185;28;7040;-72
2022/01/08 12:34:51;;;;;;;;;;;;;;;9.01;51.44;99743.69;5009947;28;7900;-72
2022/01/08 12:37:18;;;;;;;;;;;;;;;9.01;51.81;99733.47;5007174;28;7718;-72
2022/01/08 12:39:52;;;;;;;;;;;;;;;9.02;51.05;99735.22;5033588;28;7448;-72
2022/01/08 12:42:24;;;;;;;;;;;;;;;9.04;50.60;99730.19;5028842;28;8335;-72
2022/01/08 12:45:04;;;;;;;;;;;;;;;9.03;50.82;99720.75;5040028;28;7058;-73
2022/01/08 12:47:51;;;;;;;;;;;;;;;9.02;52.01;99719.88;5033421;28;6820;-73
2022/01/08 12:50:27;;;;;;;;;;;;;;;9.02;51.26;99699.44;5030310;28;6979;-72
2022/01/08 12:53:07;;;;;;;;;;;;;;;9.01;51.99;99702.78;5049815;28;6981;-72
2022/01/08 12:55:33;;;;;;;;;;;;;;;9.01;52.05;99689.13;5026674;28;6928;-72
2022/01/08 12:57:58;;;;;;;;;;;;;;;9.00;52.15;99682.28;5028090;28;6871;-72
2022/01/08 13:00:26;;;;;;;;;;;;;;;8.98;51.27;99677.13;5000234;28;6846;-72
2022/01/08 13:02:52;;;;;;;;;;;;;;;8.95;50.43;99666.72;4998365;28;7307;-72
2022/01/08 13:05:18;;;;;;;;;;;;;;;8.93;51.49;99668.34;5001070;28;6793;-72
2022/01/08 13:07:49;;;;;;;;;;;;;;;8.89;51.39;99656.28;5006369;28;7205;-72
2022/01/08 13:10:16;;;;;;;;;;;;;;;8.83;51.53;99649.19;5011480;28;8854;-72
2022/01/08 13:12:43;;;;;;;;;;;;;;;8.74;51.52;99626.69;5015256;28;6820;-72
2022/01/08 13:15:09;;;;;;;;;;;;;;;8.63;52.14;99634.69;5005005;28;7877;-72
2022/01/08 13:17:35;;;;;;;;;;;;;;;8.50;52.23;99610.25;5011354;28;6852;-72
2022/01/08 13:20:07;;;;;;;;;;;;;;;8.37;52.46;99599.50;5001336;28;7303;-72
2022/01/08 13:22:33;;;;;;;;;;;;;;;8.28;53.11;99604.19;4994802;28;6796;-72
2022/01/08 13:24:58;;;;;;;;;;;;;;;8.18;53.54;99593.59;5004911;28;6807;-72
2022/01/08 13:27:24;;;;;;;;;;;;;;;8.13;54.58;99583.97;5011914;28;6811;-72